sensor_id;sensor_type;location;lat;lon;timestamp;P1;durP1;ratioP1;P2;durP2;ratioP2
52458;SDS011;38372;52.902;6.024;2023-07-31T00:00:31;1.55;;;0.93;;
52458;SDS011;38372;52.902;6.024;2023-07-31T00:02:57;0.75;;;0.50;;
52458;SDS011;38372;52.902;6.024;2023-07-31T00:05:23;2.20;;;0.65;;
52458;SDS011;38372;52.902;6.024;2023-07-31T00:07:48;0.50;;;0.40;;
52458;SDS011;38372;52.902;6.024;2023-07-31T00:10:14;1.30;;;0.82;;
52458;SDS011;38372;52.902;6.024;2023-07-31T00:12:41;3.45;;;0.98;;
52458;SDS011;38372;52.902;6.024;2023-07-31T00:15:08;2.03;;;0.73;;
52458;SDS011;38372;52.902;6.024;2023-07-31T00:17:35;0.55;;;0.43;;
52458;SDS011;38372;52.902;6.024;2023-07-31T00:20:01;1.73;;;0.80;;
52458;SDS011;38372;52.902;6.024;2023-07-31T00:22:27;1.08;;;0.32;;
52458;SDS011;38372;52.902;6.024;2023-07-31T00:24:53;0.70;;;0.50;;
52458;SDS011;38372;52.902;6.024;2023-07-31T00:27:18;0.80;;;0.32;;
52458;SDS011;38372;52.902;6.024;2023-07-31T00:29:44;0.70;;;0.40;;
52458;SDS011;38372;52.902;6.024;2023-07-31T00:32:10;1.30;;;0.30;;
52458;SDS011;38372;52.902;6.024;2023-07-31T00:34:35;0.65;;;0.20;;
52458;SDS011;38372;52.902;6.024;2023-07-31T00:37:02;0.85;;;0.40;;
52458;SDS011;38372;52.902;6.024;2023-07-31T00:39:29;0.90;;;0.35;;
52458;SDS011;38372;52.902;6.024;2023-07-31T00:41:55;0.57;;;0.22;;
52458;SDS011;38372;52.902;6.024;2023-07-31T00:44:21;0.20;;;0.20;;
52458;SDS011;38372;52.902;6.024;2023-07-31T00:46:46;0.75;;;0.30;;
52458;SDS011;38372;52.902;6.024;2023-07-31T00:49:12;0.20;;;0.20;;
52458;SDS011;38372;52.902;6.024;2023-07-31T00:51:38;0.43;;;0.20;;
52458;SDS011;38372;52.902;6.024;2023-07-31T00:54:04;0.22;;;0.20;;
52458;SDS011;38372;52.902;6.024;2023-07-31T00:56:31;0.52;;;0.20;;
52458;SDS011;38372;52.902;6.024;2023-07-31T00:58:57;0.93;;;0.43;;
52458;SDS011;38372;52.902;6.024;2023-07-31T01:01:23;0.30;;;0.22;;
52458;SDS011;38372;52.902;6.024;2023-07-31T01:03:49;0.30;;;0.20;;
52458;SDS011;38372;52.902;6.024;2023-07-31T01:09:11;0.80;;;0.20;;
52458;SDS011;38372;52.902;6.024;2023-07-31T01:12:01;0.75;;;0.22;;
52458;SDS011;38372;52.902;6.024;2023-07-31T01:14:28;0.43;;;0.20;;
52458;SDS011;38372;52.902;6.024;2023-07-31T01:16:54;0.10;;;0.10;;
52458;SDS011;38372;52.902;6.024;2023-07-31T01:19:24;0.50;;;0.20;;
52458;SDS011;38372;52.902;6.024;2023-07-31T01:24:30;1.40;;;0.57;;
52458;SDS011;38372;52.902;6.024;2023-07-31T01:27:14;0.85;;;0.55;;
52458;SDS011;38372;52.902;6.024;2023-07-31T01:32:29;0.65;;;0.45;;
52458;SDS011;38372;52.902;6.024;2023-07-31T01:34:55;0.65;;;0.38;;
52458;SDS011;38372;52.902;6.024;2023-07-31T01:37:27;1.63;;;0.43;;
52458;SDS011;38372;52.902;6.024;2023-07-31T01:39:54;0.63;;;0.30;;
52458;SDS011;38372;52.902;6.024;2023-07-31T01:42:20;0.95;;;0.40;;
52458;SDS011;38372;52.902;6.024;2023-07-31T01:44:46;1.13;;;0.40;;
52458;SDS011;38372;52.902;6.024;2023-07-31T01:47:11;0.68;;;0.22;;
52458;SDS011;38372;52.902;6.024;2023-07-31T01:49:37;1.10;;;0.43;;
52458;SDS011;38372;52.902;6.024;2023-07-31T01:52:03;0.65;;;0.30;;
52458;SDS011;38372;52.902;6.024;2023-07-31T01:54:29;0.30;;;0.20;;
52458;SDS011;38372;52.902;6.024;2023-07-31T01:56:55;0.15;;;0.13;;
52458;SDS011;38372;52.902;6.024;2023-07-31T01:59:20;0.75;;;0.38;;
52458;SDS011;38372;52.902;6.024;2023-07-31T02:01:46;0.20;;;0.10;;
52458;SDS011;38372;52.902;6.024;2023-07-31T02:04:12;0.32;;;0.10;;
52458;SDS011;38372;52.902;6.024;2023-07-31T02:06:38;0.28;;;0.20;;
52458;SDS011;38372;52.902;6.024;2023-07-31T02:09:04;3.05;;;0.28;;
52458;SDS011;38372;52.902;6.024;2023-07-31T02:11:30;3.50;;;0.25;;
52458;SDS011;38372;52.902;6.024;2023-07-31T02:13:55;0.22;;;0.20;;
52458;SDS011;38372;52.902;6.024;2023-07-31T02:16:21;0.28;;;0.20;;
52458;SDS011;38372;52.902;6.024;2023-07-31T02:18:47;0.52;;;0.25;;
52458;SDS011;38372;52.902;6.024;2023-07-31T02:21:13;0.95;;;0.20;;
52458;SDS011;38372;52.902;6.024;2023-07-31T02:23:38;0.20;;;0.10;;
52458;SDS011;38372;52.902;6.024;2023-07-31T02:26:04;0.15;;;0.10;;
52458;SDS011;38372;52.902;6.024;2023-07-31T02:28:30;0.50;;;0.30;;
52458;SDS011;38372;52.902;6.024;2023-07-31T02:30:56;0.80;;;0.30;;
52458;SDS011;38372;52.902;6.024;2023-07-31T02:33:22;0.20;;;0.10;;
52458;SDS011;38372;52.902;6.024;2023-07-31T02:35:48;0.20;;;0.10;;
52458;SDS011;38372;52.902;6.024;2023-07-31T02:38:14;1.55;;;0.20;;
52458;SDS011;38372;52.902;6.024;2023-07-31T02:40:40;0.77;;;0.30;;
52458;SDS011;38372;52.902;6.024;2023-07-31T02:43:08;0.63;;;0.20;;
52458;SDS011;38372;52.902;6.024;2023-07-31T02:45:34;0.80;;;0.22;;
52458;SDS011;38372;52.902;6.024;2023-07-31T02:48:00;0.13;;;0.10;;
52458;SDS011;38372;52.902;6.024;2023-07-31T02:50:26;1.85;;;0.40;;
52458;SDS011;38372;52.902;6.024;2023-07-31T02:52:53;0.10;;;0.10;;
52458;SDS011;38372;52.902;6.024;2023-07-31T02:55:19;0.28;;;0.10;;
52458;SDS011;38372;52.902;6.024;2023-07-31T02:57:45;0.40;;;0.20;;
52458;SDS011;38372;52.902;6.024;2023-07-31T03:00:11;0.17;;;0.10;;
52458;SDS011;38372;52.902;6.024;2023-07-31T03:02:36;0.10;;;0.10;;
52458;SDS011;38372;52.902;6.024;2023-07-31T03:05:02;0.15;;;0.10;;
52458;SDS011;38372;52.902;6.024;2023-07-31T03:07:28;0.20;;;0.20;;
52458;SDS011;38372;52.902;6.024;2023-07-31T03:09:55;0.25;;;0.20;;
52458;SDS011;38372;52.902;6.024;2023-07-31T03:12:21;0.13;;;0.10;;
52458;SDS011;38372;52.902;6.024;2023-07-31T03:14:48;0.10;;;0.10;;
52458;SDS011;38372;52.902;6.024;2023-07-31T03:17:14;0.20;;;0.17;;
52458;SDS011;38372;52.902;6.024;2023-07-31T03:19:40;0.15;;;0.10;;
52458;SDS011;38372;52.902;6.024;2023-07-31T03:22:06;0.40;;;0.20;;
52458;SDS011;38372;52.902;6.024;2023-07-31T03:24:32;0.10;;;0.10;;
52458;SDS011;38372;52.902;6.024;2023-07-31T03:26:57;0.30;;;0.10;;
52458;SDS011;38372;52.902;6.024;2023-07-31T03:29:23;0.43;;;0.20;;
52458;SDS011;38372;52.902;6.024;2023-07-31T03:31:49;1.48;;;0.63;;
52458;SDS011;38372;52.902;6.024;2023-07-31T03:34:15;0.10;;;0.10;;
52458;SDS011;38372;52.902;6.024;2023-07-31T03:36:40;0.38;;;0.10;;
52458;SDS011;38372;52.902;6.024;2023-07-31T03:39:06;0.08;;;0.08;;
52458;SDS011;38372;52.902;6.024;2023-07-31T03:41:32;0.30;;;0.30;;
52458;SDS011;38372;52.902;6.024;2023-07-31T03:43:57;0.10;;;0.10;;
52458;SDS011;38372;52.902;6.024;2023-07-31T03:46:24;0.47;;;0.32;;
52458;SDS011;38372;52.902;6.024;2023-07-31T03:48:49;0.22;;;0.10;;
52458;SDS011;38372;52.902;6.024;2023-07-31T03:51:16;2.05;;;0.25;;
52458;SDS011;38372;52.902;6.024;2023-07-31T03:53:42;0.45;;;0.30;;
52458;SDS011;38372;52.902;6.024;2023-07-31T03:56:08;0.47;;;0.30;;
52458;SDS011;38372;52.902;6.024;2023-07-31T03:58:34;0.15;;;0.10;;
52458;SDS011;38372;52.902;6.024;2023-07-31T04:01:01;0.90;;;0.40;;
52458;SDS011;38372;52.902;6.024;2023-07-31T04:03:26;0.65;;;0.25;;
52458;SDS011;38372;52.902;6.024;2023-07-31T04:05:53;1.60;;;0.47;;
52458;SDS011;38372;52.902;6.024;2023-07-31T04:08:21;0.60;;;0.32;;
52458;SDS011;38372;52.902;6.024;2023-07-31T04:10:47;0.75;;;0.40;;
52458;SDS011;38372;52.902;6.024;2023-07-31T04:13:13;2.50;;;1.23;;
52458;SDS011;38372;52.902;6.024;2023-07-31T04:15:38;1.73;;;0.60;;
52458;SDS011;38372;52.902;6.024;2023-07-31T04:18:05;3.35;;;1.38;;
52458;SDS011;38372;52.902;6.024;2023-07-31T04:20:31;1.58;;;0.75;;
52458;SDS011;38372;52.902;6.024;2023-07-31T04:22:57;1.20;;;0.50;;
52458;SDS011;38372;52.902;6.024;2023-07-31T04:25:23;0.75;;;0.55;;
52458;SDS011;38372;52.902;6.024;2023-07-31T04:27:49;0.75;;;0.60;;
52458;SDS011;38372;52.902;6.024;2023-07-31T04:30:15;2.38;;;1.25;;
52458;SDS011;38372;52.902;6.024;2023-07-31T04:32:40;6.88;;;1.17;;
52458;SDS011;38372;52.902;6.024;2023-07-31T04:35:06;5.28;;;1.48;;
52458;SDS011;38372;52.902;6.024;2023-07-31T04:37:32;5.20;;;2.08;;
52458;SDS011;38372;52.902;6.024;2023-07-31T04:39:58;2.15;;;1.08;;
52458;SDS011;38372;52.902;6.024;2023-07-31T04:42:24;4.30;;;1.20;;
52458;SDS011;38372;52.902;6.024;2023-07-31T04:44:50;4.22;;;1.63;;
52458;SDS011;38372;52.902;6.024;2023-07-31T04:47:18;5.63;;;1.60;;
52458;SDS011;38372;52.902;6.024;2023-07-31T04:49:44;2.85;;;0.95;;
52458;SDS011;38372;52.902;6.024;2023-07-31T04:52:09;3.67;;;1.55;;
52458;SDS011;38372;52.902;6.024;2023-07-31T04:54:35;8.15;;;1.52;;
52458;SDS011;38372;52.902;6.024;2023-07-31T04:57:01;6.22;;;2.08;;
52458;SDS011;38372;52.902;6.024;2023-07-31T04:59:27;5.13;;;1.58;;
52458;SDS011;38372;52.902;6.024;2023-07-31T05:01:52;4.10;;;1.60;;
52458;SDS011;38372;52.902;6.024;2023-07-31T05:04:18;3.58;;;1.10;;
52458;SDS011;38372;52.902;6.024;2023-07-31T05:06:44;5.78;;;1.10;;
52458;SDS011;38372;52.902;6.024;2023-07-31T05:09:10;5.75;;;1.40;;
52458;SDS011;38372;52.902;6.024;2023-07-31T05:11:35;2.55;;;1.08;;
52458;SDS011;38372;52.902;6.024;2023-07-31T05:14:01;4.82;;;1.90;;
52458;SDS011;38372;52.902;6.024;2023-07-31T05:16:27;5.00;;;1.67;;
52458;SDS011;38372;52.902;6.024;2023-07-31T05:18:52;6.60;;;1.90;;
52458;SDS011;38372;52.902;6.024;2023-07-31T05:21:18;3.85;;;1.83;;
52458;SDS011;38372;52.902;6.024;2023-07-31T05:23:44;6.95;;;1.65;;
52458;SDS011;38372;52.902;6.024;2023-07-31T05:26:10;7.80;;;1.45;;
52458;SDS011;38372;52.902;6.024;2023-07-31T05:28:36;4.90;;;1.75;;
52458;SDS011;38372;52.902;6.024;2023-07-31T05:31:05;5.85;;;1.92;;
52458;SDS011;38372;52.902;6.024;2023-07-31T05:33:31;3.38;;;1.38;;
52458;SDS011;38372;52.902;6.024;2023-07-31T05:35:58;3.33;;;1.17;;
52458;SDS011;38372;52.902;6.024;2023-07-31T05:38:23;4.78;;;1.65;;
52458;SDS011;38372;52.902;6.024;2023-07-31T05:40:49;5.15;;;1.95;;
52458;SDS011;38372;52.902;6.024;2023-07-31T05:43:15;8.85;;;1.95;;
52458;SDS011;38372;52.902;6.024;2023-07-31T05:45:44;2.88;;;1.10;;
52458;SDS011;38372;52.902;6.024;2023-07-31T05:48:10;6.83;;;1.37;;
52458;SDS011;38372;52.902;6.024;2023-07-31T05:50:35;5.60;;;1.52;;
52458;SDS011;38372;52.902;6.024;2023-07-31T05:53:04;4.28;;;1.75;;
52458;SDS011;38372;52.902;6.024;2023-07-31T05:55:29;3.75;;;1.33;;
52458;SDS011;38372;52.902;6.024;2023-07-31T05:57:55;6.82;;;1.35;;
52458;SDS011;38372;52.902;6.024;2023-07-31T06:00:21;4.53;;;1.50;;
52458;SDS011;38372;52.902;6.024;2023-07-31T06:02:47;3.65;;;1.38;;
52458;SDS011;38372;52.902;6.024;2023-07-31T06:05:13;6.65;;;1.23;;
52458;SDS011;38372;52.902;6.024;2023-07-31T06:07:39;5.03;;;1.65;;
52458;SDS011;38372;52.902;6.024;2023-07-31T06:10:05;2.55;;;1.55;;
52458;SDS011;38372;52.902;6.024;2023-07-31T06:12:32;3.55;;;1.13;;
52458;SDS011;38372;52.902;6.024;2023-07-31T06:14:58;3.45;;;0.90;;
52458;SDS011;38372;52.902;6.024;2023-07-31T06:17:23;3.22;;;1.20;;
52458;SDS011;38372;52.902;6.024;2023-07-31T06:19:50;3.97;;;1.23;;
52458;SDS011;38372;52.902;6.024;2023-07-31T06:22:16;3.70;;;0.90;;
52458;SDS011;38372;52.902;6.024;2023-07-31T06:24:42;3.67;;;1.23;;
52458;SDS011;38372;52.902;6.024;2023-07-31T06:27:08;3.97;;;1.58;;
52458;SDS011;38372;52.902;6.024;2023-07-31T06:29:34;5.45;;;1.33;;
52458;SDS011;38372;52.902;6.024;2023-07-31T06:32:00;2.88;;;1.42;;
52458;SDS011;38372;52.902;6.024;2023-07-31T06:34:26;5.00;;;0.85;;
52458;SDS011;38372;52.902;6.024;2023-07-31T06:36:55;3.85;;;1.40;;
52458;SDS011;38372;52.902;6.024;2023-07-31T06:39:21;3.85;;;1.45;;
52458;SDS011;38372;52.902;6.024;2023-07-31T06:41:48;2.95;;;1.25;;
52458;SDS011;38372;52.902;6.024;2023-07-31T06:44:13;2.92;;;0.93;;
52458;SDS011;38372;52.902;6.024;2023-07-31T06:46:39;1.85;;;0.80;;
52458;SDS011;38372;52.902;6.024;2023-07-31T06:49:05;5.13;;;1.20;;
52458;SDS011;38372;52.902;6.024;2023-07-31T06:51:31;1.92;;;0.57;;
52458;SDS011;38372;52.902;6.024;2023-07-31T06:53:57;1.48;;;0.77;;
52458;SDS011;38372;52.902;6.024;2023-07-31T06:56:23;2.90;;;0.60;;
52458;SDS011;38372;52.902;6.024;2023-07-31T06:58:49;3.65;;;0.80;;
52458;SDS011;38372;52.902;6.024;2023-07-31T07:01:15;4.30;;;0.93;;
52458;SDS011;38372;52.902;6.024;2023-07-31T07:03:41;0.68;;;0.30;;
52458;SDS011;38372;52.902;6.024;2023-07-31T07:06:06;1.17;;;0.75;;
52458;SDS011;38372;52.902;6.024;2023-07-31T07:08:32;3.03;;;0.50;;
52458;SDS011;38372;52.902;6.024;2023-07-31T07:10:58;2.00;;;0.73;;
52458;SDS011;38372;52.902;6.024;2023-07-31T07:13:24;0.98;;;0.32;;
52458;SDS011;38372;52.902;6.024;2023-07-31T07:15:50;0.80;;;0.30;;
52458;SDS011;38372;52.902;6.024;2023-07-31T07:18:16;2.05;;;0.47;;
52458;SDS011;38372;52.902;6.024;2023-07-31T07:20:46;0.98;;;0.65;;
52458;SDS011;38372;52.902;6.024;2023-07-31T07:23:13;0.80;;;0.40;;
52458;SDS011;38372;52.902;6.024;2023-07-31T07:25:38;0.55;;;0.40;;
52458;SDS011;38372;52.902;6.024;2023-07-31T07:28:04;1.13;;;0.52;;
52458;SDS011;38372;52.902;6.024;2023-07-31T07:30:30;0.65;;;0.38;;
52458;SDS011;38372;52.902;6.024;2023-07-31T07:32:56;0.50;;;0.20;;
52458;SDS011;38372;52.902;6.024;2023-07-31T07:35:21;0.57;;;0.45;;
52458;SDS011;38372;52.902;6.024;2023-07-31T07:37:50;0.15;;;0.13;;
52458;SDS011;38372;52.902;6.024;2023-07-31T07:40:16;0.50;;;0.20;;
52458;SDS011;38372;52.902;6.024;2023-07-31T07:42:42;0.70;;;0.28;;
52458;SDS011;38372;52.902;6.024;2023-07-31T07:45:08;0.73;;;0.20;;
52458;SDS011;38372;52.902;6.024;2023-07-31T07:47:34;1.52;;;0.20;;
52458;SDS011;38372;52.902;6.024;2023-07-31T07:49:59;0.40;;;0.10;;
52458;SDS011;38372;52.902;6.024;2023-07-31T07:52:25;1.08;;;0.20;;
52458;SDS011;38372;52.902;6.024;2023-07-31T07:54:51;0.47;;;0.20;;
52458;SDS011;38372;52.902;6.024;2023-07-31T07:57:17;0.50;;;0.30;;
52458;SDS011;38372;52.902;6.024;2023-07-31T07:59:43;0.70;;;0.45;;
52458;SDS011;38372;52.902;6.024;2023-07-31T08:02:09;0.40;;;0.20;;
52458;SDS011;38372;52.902;6.024;2023-07-31T08:04:35;1.27;;;0.50;;
52458;SDS011;38372;52.902;6.024;2023-07-31T08:07:00;0.43;;;0.28;;
52458;SDS011;38372;52.902;6.024;2023-07-31T08:09:26;0.10;;;0.10;;
52458;SDS011;38372;52.902;6.024;2023-07-31T08:11:52;0.75;;;0.57;;
52458;SDS011;38372;52.902;6.024;2023-07-31T08:14:18;0.20;;;0.10;;
52458;SDS011;38372;52.902;6.024;2023-07-31T08:16:43;0.25;;;0.10;;
52458;SDS011;38372;52.902;6.024;2023-07-31T08:19:09;1.40;;;0.38;;
52458;SDS011;38372;52.902;6.024;2023-07-31T08:21:35;0.47;;;0.38;;
52458;SDS011;38372;52.902;6.024;2023-07-31T08:24:01;0.35;;;0.30;;
52458;SDS011;38372;52.902;6.024;2023-07-31T08:26:27;1.05;;;0.40;;
52458;SDS011;38372;52.902;6.024;2023-07-31T08:28:53;0.35;;;0.20;;
52458;SDS011;38372;52.902;6.024;2023-07-31T08:31:19;1.45;;;0.20;;
52458;SDS011;38372;52.902;6.024;2023-07-31T08:33:44;0.65;;;0.30;;
52458;SDS011;38372;52.902;6.024;2023-07-31T08:36:10;0.38;;;0.20;;
52458;SDS011;38372;52.902;6.024;2023-07-31T08:38:36;0.30;;;0.17;;
52458;SDS011;38372;52.902;6.024;2023-07-31T08:41:05;0.20;;;0.10;;
52458;SDS011;38372;52.902;6.024;2023-07-31T08:43:31;0.20;;;0.20;;
52458;SDS011;38372;52.902;6.024;2023-07-31T08:45:58;0.08;;;0.08;;
52458;SDS011;38372;52.902;6.024;2023-07-31T08:48:24;0.38;;;0.20;;
52458;SDS011;38372;52.902;6.024;2023-07-31T08:50:53;0.73;;;0.20;;
52458;SDS011;38372;52.902;6.024;2023-07-31T08:53:19;0.57;;;0.20;;
52458;SDS011;38372;52.902;6.024;2023-07-31T08:55:45;0.43;;;0.22;;
52458;SDS011;38372;52.902;6.024;2023-07-31T08:58:12;0.13;;;0.10;;
52458;SDS011;38372;52.902;6.024;2023-07-31T09:00:39;0.10;;;0.00;;
52458;SDS011;38372;52.902;6.024;2023-07-31T09:03:11;0.10;;;0.10;;
52458;SDS011;38372;52.902;6.024;2023-07-31T09:05:42;0.17;;;0.10;;
52458;SDS011;38372;52.902;6.024;2023-07-31T09:08:09;0.00;;;0.00;;
52458;SDS011;38372;52.902;6.024;2023-07-31T09:10:40;0.20;;;0.10;;
52458;SDS011;38372;52.902;6.024;2023-07-31T09:13:11;0.20;;;0.03;;
52458;SDS011;38372;52.902;6.024;2023-07-31T09:15:38;0.00;;;0.00;;
52458;SDS011;38372;52.902;6.024;2023-07-31T09:18:05;0.00;;;0.00;;
52458;SDS011;38372;52.902;6.024;2023-07-31T09:20:32;0.17;;;0.08;;
52458;SDS011;38372;52.902;6.024;2023-07-31T09:23:09;0.40;;;0.17;;
52458;SDS011;38372;52.902;6.024;2023-07-31T09:25:36;0.43;;;0.20;;
52458;SDS011;38372;52.902;6.024;2023-07-31T09:28:04;0.10;;;0.10;;
52458;SDS011;38372;52.902;6.024;2023-07-31T09:30:32;0.00;;;0.00;;
52458;SDS011;38372;52.902;6.024;2023-07-31T09:33:11;0.00;;;0.00;;
52458;SDS011;38372;52.902;6.024;2023-07-31T09:35:36;0.08;;;0.00;;
52458;SDS011;38372;52.902;6.024;2023-07-31T09:38:12;0.22;;;0.05;;
52458;SDS011;38372;52.902;6.024;2023-07-31T09:40:43;0.10;;;0.10;;
52458;SDS011;38372;52.902;6.024;2023-07-31T09:43:10;0.10;;;0.00;;
52458;SDS011;38372;52.902;6.024;2023-07-31T09:45:38;0.10;;;0.10;;
52458;SDS011;38372;52.902;6.024;2023-07-31T09:48:08;0.00;;;0.00;;
52458;SDS011;38372;52.902;6.024;2023-07-31T09:50:39;0.10;;;0.10;;
52458;SDS011;38372;52.902;6.024;2023-07-31T09:53:06;0.05;;;0.00;;
52458;SDS011;38372;52.902;6.024;2023-07-31T09:55:33;0.20;;;0.10;;
52458;SDS011;38372;52.902;6.024;2023-07-31T09:58:03;0.17;;;0.00;;
52458;SDS011;38372;52.902;6.024;2023-07-31T10:00:31;0.00;;;0.00;;
52458;SDS011;38372;52.902;6.024;2023-07-31T10:03:01;1.15;;;0.20;;
52458;SDS011;38372;52.902;6.024;2023-07-31T10:05:34;0.35;;;0.20;;
52458;SDS011;38372;52.902;6.024;2023-07-31T10:08:09;0.22;;;0.10;;
52458;SDS011;38372;52.902;6.024;2023-07-31T10:10:36;0.17;;;0.10;;
52458;SDS011;38372;52.902;6.024;2023-07-31T10:13:06;0.45;;;0.20;;
52458;SDS011;38372;52.902;6.024;2023-07-31T10:15:32;0.60;;;0.38;;
52458;SDS011;38372;52.902;6.024;2023-07-31T10:17:59;0.43;;;0.15;;
52458;SDS011;38372;52.902;6.024;2023-07-31T10:20:26;0.98;;;0.25;;
52458;SDS011;38372;52.902;6.024;2023-07-31T10:22:54;0.25;;;0.20;;
52458;SDS011;38372;52.902;6.024;2023-07-31T10:25:20;0.25;;;0.10;;
52458;SDS011;38372;52.902;6.024;2023-07-31T10:27:47;0.65;;;0.43;;
52458;SDS011;38372;52.902;6.024;2023-07-31T10:30:16;0.70;;;0.20;;
52458;SDS011;38372;52.902;6.024;2023-07-31T10:32:44;0.17;;;0.10;;
52458;SDS011;38372;52.902;6.024;2023-07-31T10:35:11;0.15;;;0.08;;
52458;SDS011;38372;52.902;6.024;2023-07-31T10:37:41;0.52;;;0.30;;
52458;SDS011;38372;52.902;6.024;2023-07-31T10:40:23;0.57;;;0.20;;
52458;SDS011;38372;52.902;6.024;2023-07-31T10:42:51;2.38;;;0.20;;
52458;SDS011;38372;52.902;6.024;2023-07-31T10:47:59;0.63;;;0.38;;
52458;SDS011;38372;52.902;6.024;2023-07-31T10:50:27;0.08;;;0.00;;
52458;SDS011;38372;52.902;6.024;2023-07-31T10:52:54;1.70;;;0.40;;
52458;SDS011;38372;52.902;6.024;2023-07-31T10:58:07;0.00;;;0.00;;
52458;SDS011;38372;52.902;6.024;2023-07-31T11:00:42;0.32;;;0.32;;
52458;SDS011;38372;52.902;6.024;2023-07-31T11:03:13;0.57;;;0.22;;
52458;SDS011;38372;52.902;6.024;2023-07-31T11:08:28;0.43;;;0.10;;
52458;SDS011;38372;52.902;6.024;2023-07-31T11:13:31;0.40;;;0.20;;
52458;SDS011;38372;52.902;6.024;2023-07-31T11:15:58;0.22;;;0.10;;
52458;SDS011;38372;52.902;6.024;2023-07-31T11:18:26;0.28;;;0.10;;
52458;SDS011;38372;52.902;6.024;2023-07-31T11:20:52;0.10;;;0.03;;
52458;SDS011;38372;52.902;6.024;2023-07-31T11:23:18;0.10;;;0.10;;
52458;SDS011;38372;52.902;6.024;2023-07-31T11:25:45;0.93;;;0.20;;
52458;SDS011;38372;52.902;6.024;2023-07-31T11:28:15;0.05;;;0.05;;
52458;SDS011;38372;52.902;6.024;2023-07-31T11:30:42;0.10;;;0.10;;
52458;SDS011;38372;52.902;6.024;2023-07-31T11:33:10;0.25;;;0.15;;
52458;SDS011;38372;52.902;6.024;2023-07-31T11:35:45;0.03;;;0.03;;
52458;SDS011;38372;52.902;6.024;2023-07-31T11:38:23;0.28;;;0.10;;
52458;SDS011;38372;52.902;6.024;2023-07-31T11:40:53;3.13;;;0.20;;
52458;SDS011;38372;52.902;6.024;2023-07-31T11:43:21;0.93;;;0.40;;
52458;SDS011;38372;52.902;6.024;2023-07-31T11:45:48;0.38;;;0.20;;
52458;SDS011;38372;52.902;6.024;2023-07-31T11:48:19;0.95;;;0.40;;
52458;SDS011;38372;52.902;6.024;2023-07-31T11:50:57;0.22;;;0.22;;
52458;SDS011;38372;52.902;6.024;2023-07-31T11:53:26;2.63;;;0.55;;
52458;SDS011;38372;52.902;6.024;2023-07-31T11:55:55;1.42;;;0.68;;
52458;SDS011;38372;52.902;6.024;2023-07-31T11:58:23;1.30;;;0.40;;
52458;SDS011;38372;52.902;6.024;2023-07-31T12:00:49;0.63;;;0.30;;
52458;SDS011;38372;52.902;6.024;2023-07-31T12:03:16;0.88;;;0.30;;
52458;SDS011;38372;52.902;6.024;2023-07-31T12:05:43;0.68;;;0.30;;
52458;SDS011;38372;52.902;6.024;2023-07-31T12:08:10;0.63;;;0.15;;
52458;SDS011;38372;52.902;6.024;2023-07-31T12:10:37;0.55;;;0.30;;
52458;SDS011;38372;52.902;6.024;2023-07-31T12:13:04;0.63;;;0.30;;
52458;SDS011;38372;52.902;6.024;2023-07-31T12:15:39;2.75;;;0.38;;
52458;SDS011;38372;52.902;6.024;2023-07-31T12:18:10;0.40;;;0.30;;
52458;SDS011;38372;52.902;6.024;2023-07-31T12:20:44;1.52;;;0.40;;
52458;SDS011;38372;52.902;6.024;2023-07-31T12:23:17;1.40;;;0.70;;
52458;SDS011;38372;52.902;6.024;2023-07-31T12:28:29;2.53;;;0.57;;
52458;SDS011;38372;52.902;6.024;2023-07-31T12:30:59;1.55;;;0.28;;
52458;SDS011;38372;52.902;6.024;2023-07-31T12:33:30;0.88;;;0.60;;
52458;SDS011;38372;52.902;6.024;2023-07-31T12:35:57;2.75;;;0.30;;
52458;SDS011;38372;52.902;6.024;2023-07-31T12:38:25;2.42;;;0.28;;
52458;SDS011;38372;52.902;6.024;2023-07-31T12:40:51;2.58;;;0.45;;
52458;SDS011;38372;52.902;6.024;2023-07-31T12:43:16;1.65;;;0.45;;
52458;SDS011;38372;52.902;6.024;2023-07-31T12:45:42;3.13;;;0.43;;
52458;SDS011;38372;52.902;6.024;2023-07-31T12:48:08;3.08;;;0.73;;
52458;SDS011;38372;52.902;6.024;2023-07-31T12:50:34;2.10;;;0.70;;
52458;SDS011;38372;52.902;6.024;2023-07-31T12:53:01;1.52;;;0.70;;
52458;SDS011;38372;52.902;6.024;2023-07-31T12:55:28;1.33;;;0.85;;
52458;SDS011;38372;52.902;6.024;2023-07-31T12:57:55;1.52;;;0.38;;
52458;SDS011;38372;52.902;6.024;2023-07-31T13:00:21;3.60;;;0.52;;
52458;SDS011;38372;52.902;6.024;2023-07-31T13:02:47;0.90;;;0.40;;
52458;SDS011;38372;52.902;6.024;2023-07-31T13:05:13;1.77;;;0.80;;
52458;SDS011;38372;52.902;6.024;2023-07-31T13:07:39;2.67;;;0.60;;
52458;SDS011;38372;52.902;6.024;2023-07-31T13:10:06;1.23;;;0.80;;
52458;SDS011;38372;52.902;6.024;2023-07-31T13:12:32;2.28;;;0.82;;
52458;SDS011;38372;52.902;6.024;2023-07-31T13:14:59;1.05;;;0.55;;
52458;SDS011;38372;52.902;6.024;2023-07-31T13:17:24;1.45;;;0.60;;
52458;SDS011;38372;52.902;6.024;2023-07-31T13:19:51;2.83;;;0.98;;
52458;SDS011;38372;52.902;6.024;2023-07-31T13:22:17;2.08;;;1.05;;
52458;SDS011;38372;52.902;6.024;2023-07-31T13:24:42;1.30;;;0.73;;
52458;SDS011;38372;52.902;6.024;2023-07-31T13:27:08;1.60;;;0.73;;
52458;SDS011;38372;52.902;6.024;2023-07-31T13:29:34;1.42;;;0.75;;
52458;SDS011;38372;52.902;6.024;2023-07-31T13:32:00;2.10;;;0.40;;
52458;SDS011;38372;52.902;6.024;2023-07-31T13:34:25;1.58;;;0.80;;
52458;SDS011;38372;52.902;6.024;2023-07-31T13:36:51;4.15;;;1.20;;
52458;SDS011;38372;52.902;6.024;2023-07-31T13:39:18;4.43;;;0.57;;
52458;SDS011;38372;52.902;6.024;2023-07-31T13:41:44;1.20;;;0.52;;
52458;SDS011;38372;52.902;6.024;2023-07-31T13:44:10;2.20;;;1.00;;
52458;SDS011;38372;52.902;6.024;2023-07-31T13:46:35;3.88;;;1.05;;
52458;SDS011;38372;52.902;6.024;2023-07-31T13:49:01;3.88;;;1.00;;
52458;SDS011;38372;52.902;6.024;2023-07-31T13:51:27;1.35;;;0.70;;
52458;SDS011;38372;52.902;6.024;2023-07-31T13:53:53;1.65;;;0.63;;
52458;SDS011;38372;52.902;6.024;2023-07-31T13:56:19;0.80;;;0.60;;
52458;SDS011;38372;52.902;6.024;2023-07-31T13:58:45;1.05;;;0.50;;
52458;SDS011;38372;52.902;6.024;2023-07-31T14:01:10;3.05;;;1.17;;
52458;SDS011;38372;52.902;6.024;2023-07-31T14:03:36;1.48;;;0.65;;
52458;SDS011;38372;52.902;6.024;2023-07-31T14:06:02;2.17;;;0.80;;
52458;SDS011;38372;52.902;6.024;2023-07-31T14:08:28;2.95;;;0.60;;
52458;SDS011;38372;52.902;6.024;2023-07-31T14:10:55;5.47;;;0.98;;
52458;SDS011;38372;52.902;6.024;2023-07-31T14:13:21;2.05;;;0.80;;
52458;SDS011;38372;52.902;6.024;2023-07-31T14:15:46;1.83;;;0.73;;
52458;SDS011;38372;52.902;6.024;2023-07-31T14:18:12;1.98;;;0.80;;
52458;SDS011;38372;52.902;6.024;2023-07-31T14:20:38;1.25;;;0.70;;
52458;SDS011;38372;52.902;6.024;2023-07-31T14:23:04;2.03;;;0.73;;
52458;SDS011;38372;52.902;6.024;2023-07-31T14:25:30;3.08;;;0.63;;
52458;SDS011;38372;52.902;6.024;2023-07-31T14:27:55;4.90;;;0.50;;
52458;SDS011;38372;52.902;6.024;2023-07-31T14:30:21;1.58;;;0.50;;
52458;SDS011;38372;52.902;6.024;2023-07-31T14:32:47;1.20;;;0.50;;
52458;SDS011;38372;52.902;6.024;2023-07-31T14:35:13;2.00;;;0.52;;
52458;SDS011;38372;52.902;6.024;2023-07-31T14:37:39;0.98;;;0.40;;
52458;SDS011;38372;52.902;6.024;2023-07-31T14:40:07;0.65;;;0.50;;
52458;SDS011;38372;52.902;6.024;2023-07-31T14:42:35;3.75;;;0.50;;
52458;SDS011;38372;52.902;6.024;2023-07-31T14:45:02;1.25;;;0.50;;
52458;SDS011;38372;52.902;6.024;2023-07-31T14:47:28;2.78;;;0.68;;
52458;SDS011;38372;52.902;6.024;2023-07-31T14:49:56;5.40;;;1.08;;
52458;SDS011;38372;52.902;6.024;2023-07-31T14:52:22;1.48;;;0.50;;
52458;SDS011;38372;52.902;6.024;2023-07-31T14:54:47;0.98;;;0.20;;
52458;SDS011;38372;52.902;6.024;2023-07-31T14:57:13;3.03;;;0.70;;
52458;SDS011;38372;52.902;6.024;2023-07-31T14:59:39;3.80;;;0.60;;
52458;SDS011;38372;52.902;6.024;2023-07-31T15:02:05;2.55;;;0.38;;
52458;SDS011;38372;52.902;6.024;2023-07-31T15:04:32;0.52;;;0.20;;
52458;SDS011;38372;52.902;6.024;2023-07-31T15:06:58;1.33;;;0.63;;